sensor_id;sensor_type;location;lat;lon;timestamp;P1;durP1;ratioP1;P2;durP2;ratioP2
3781;SDS011;6881;49.962;7.718;2023-03-14T00:01:13;6.13;;;3.87;;
3781;SDS011;6881;49.962;7.718;2023-03-14T00:03:40;6.63;;;3.50;;
3781;SDS011;6881;49.962;7.718;2023-03-14T00:06:06;8.97;;;3.33;;
3781;SDS011;6881;49.962;7.718;2023-03-14T00:08:32;6.77;;;3.43;;
3781;SDS011;6881;49.962;7.718;2023-03-14T00:10:57;4.33;;;3.70;;
3781;SDS011;6881;49.962;7.718;2023-03-14T00:13:23;8.03;;;4.27;;
3781;SDS011;6881;49.962;7.718;2023-03-14T00:15:49;6.27;;;4.20;;
3781;SDS011;6881;49.962;7.718;2023-03-14T00:18:14;5.30;;;4.23;;
3781;SDS011;6881;49.962;7.718;2023-03-14T00:20:39;6.30;;;4.30;;
3781;SDS011;6881;49.962;7.718;2023-03-14T00:23:05;6.97;;;4.57;;
3781;SDS011;6881;49.962;7.718;2023-03-14T00:25:30;6.37;;;4.50;;
3781;SDS011;6881;49.962;7.718;2023-03-14T00:27:55;8.10;;;4.73;;
3781;SDS011;6881;49.962;7.718;2023-03-14T00:30:21;6.43;;;4.37;;
3781;SDS011;6881;49.962;7.718;2023-03-14T00:32:46;4.63;;;3.23;;
3781;SDS011;6881;49.962;7.718;2023-03-14T00:35:12;7.73;;;4.20;;
3781;SDS011;6881;49.962;7.718;2023-03-14T00:37:37;5.40;;;4.67;;
3781;SDS011;6881;49.962;7.718;2023-03-14T00:40:03;11.63;;;5.40;;
3781;SDS011;6881;49.962;7.718;2023-03-14T00:42:31;7.40;;;4.80;;
3781;SDS011;6881;49.962;7.718;2023-03-14T00:44:57;9.33;;;3.97;;
3781;SDS011;6881;49.962;7.718;2023-03-14T00:47:22;8.87;;;5.30;;
3781;SDS011;6881;49.962;7.718;2023-03-14T00:49:47;8.50;;;5.03;;
3781;SDS011;6881;49.962;7.718;2023-03-14T00:52:13;9.63;;;5.27;;
3781;SDS011;6881;49.962;7.718;2023-03-14T00:54:38;16.10;;;4.20;;
3781;SDS011;6881;49.962;7.718;2023-03-14T00:57:03;8.03;;;5.30;;
3781;SDS011;6881;49.962;7.718;2023-03-14T00:59:29;7.67;;;5.00;;
3781;SDS011;6881;49.962;7.718;2023-03-14T01:01:54;10.00;;;3.43;;
3781;SDS011;6881;49.962;7.718;2023-03-14T01:04:19;5.83;;;4.17;;
3781;SDS011;6881;49.962;7.718;2023-03-14T01:06:44;11.27;;;3.77;;
3781;SDS011;6881;49.962;7.718;2023-03-14T01:09:10;6.13;;;3.50;;
3781;SDS011;6881;49.962;7.718;2023-03-14T01:11:35;5.13;;;3.47;;
3781;SDS011;6881;49.962;7.718;2023-03-14T01:14:01;11.87;;;4.20;;
3781;SDS011;6881;49.962;7.718;2023-03-14T01:16:28;14.77;;;4.17;;
3781;SDS011;6881;49.962;7.718;2023-03-14T01:18:54;4.67;;;3.17;;
3781;SDS011;6881;49.962;7.718;2023-03-14T01:21:26;4.50;;;2.90;;
3781;SDS011;6881;49.962;7.718;2023-03-14T01:23:54;4.47;;;3.50;;
3781;SDS011;6881;49.962;7.718;2023-03-14T01:26:21;6.40;;;3.33;;
3781;SDS011;6881;49.962;7.718;2023-03-14T01:28:48;8.17;;;3.63;;
3781;SDS011;6881;49.962;7.718;2023-03-14T01:31:15;4.30;;;2.40;;
3781;SDS011;6881;49.962;7.718;2023-03-14T01:33:41;4.90;;;2.97;;
3781;SDS011;6881;49.962;7.718;2023-03-14T01:36:07;3.63;;;2.50;;
3781;SDS011;6881;49.962;7.718;2023-03-14T01:38:34;6.00;;;2.50;;
3781;SDS011;6881;49.962;7.718;2023-03-14T01:41:00;3.57;;;2.87;;
3781;SDS011;6881;49.962;7.718;2023-03-14T01:43:26;6.97;;;3.03;;
3781;SDS011;6881;49.962;7.718;2023-03-14T01:48:23;4.57;;;2.00;;
3781;SDS011;6881;49.962;7.718;2023-03-14T01:50:50;4.90;;;2.33;;
3781;SDS011;6881;49.962;7.718;2023-03-14T01:53:15;4.30;;;2.50;;
3781;SDS011;6881;49.962;7.718;2023-03-14T01:55:42;2.50;;;2.30;;
3781;SDS011;6881;49.962;7.718;2023-03-14T01:58:07;1.63;;;1.53;;
3781;SDS011;6881;49.962;7.718;2023-03-14T02:00:33;3.80;;;2.00;;
3781;SDS011;6881;49.962;7.718;2023-03-14T02:03:00;2.80;;;2.50;;
3781;SDS011;6881;49.962;7.718;2023-03-14T02:05:31;3.17;;;2.33;;
3781;SDS011;6881;49.962;7.718;2023-03-14T02:07:58;6.20;;;3.53;;
3781;SDS011;6881;49.962;7.718;2023-03-14T02:10:27;3.97;;;2.73;;
3781;SDS011;6881;49.962;7.718;2023-03-14T02:12:55;7.50;;;3.50;;
3781;SDS011;6881;49.962;7.718;2023-03-14T02:15:21;3.53;;;1.87;;
3781;SDS011;6881;49.962;7.718;2023-03-14T02:17:46;12.70;;;2.77;;
3781;SDS011;6881;49.962;7.718;2023-03-14T02:22:53;7.23;;;3.47;;
3781;SDS011;6881;49.962;7.718;2023-03-14T02:28:11;4.63;;;2.77;;
3781;SDS011;6881;49.962;7.718;2023-03-14T02:30:36;8.47;;;2.77;;
3781;SDS011;6881;49.962;7.718;2023-03-14T02:49:52;9.17;;;2.80;;
3781;SDS011;6881;49.962;7.718;2023-03-14T02:52:20;3.00;;;1.70;;
3781;SDS011;6881;49.962;7.718;2023-03-14T02:54:46;5.50;;;2.50;;
3781;SDS011;6881;49.962;7.718;2023-03-14T02:57:11;4.03;;;1.93;;
3781;SDS011;6881;49.962;7.718;2023-03-14T02:59:36;8.17;;;1.83;;
3781;SDS011;6881;49.962;7.718;2023-03-14T03:02:02;3.60;;;2.20;;
3781;SDS011;6881;49.962;7.718;2023-03-14T03:04:27;4.07;;;2.17;;
3781;SDS011;6881;49.962;7.718;2023-03-14T03:06:52;8.63;;;1.93;;
3781;SDS011;6881;49.962;7.718;2023-03-14T03:09:18;5.50;;;1.77;;
3781;SDS011;6881;49.962;7.718;2023-03-14T03:11:43;2.70;;;1.67;;
3781;SDS011;6881;49.962;7.718;2023-03-14T03:14:08;3.07;;;1.77;;
3781;SDS011;6881;49.962;7.718;2023-03-14T03:16:34;2.90;;;1.90;;
3781;SDS011;6881;49.962;7.718;2023-03-14T03:18:59;4.40;;;2.00;;
3781;SDS011;6881;49.962;7.718;2023-03-14T03:21:24;3.37;;;2.30;;
3781;SDS011;6881;49.962;7.718;2023-03-14T03:23:50;3.07;;;1.63;;
3781;SDS011;6881;49.962;7.718;2023-03-14T03:26:15;3.20;;;1.80;;
3781;SDS011;6881;49.962;7.718;2023-03-14T03:28:41;9.90;;;1.90;;
3781;SDS011;6881;49.962;7.718;2023-03-14T03:31:10;2.97;;;2.00;;
3781;SDS011;6881;49.962;7.718;2023-03-14T03:33:36;2.90;;;1.90;;
3781;SDS011;6881;49.962;7.718;2023-03-14T03:36:02;4.20;;;2.20;;
3781;SDS011;6881;49.962;7.718;2023-03-14T03:38:27;5.33;;;1.33;;
3781;SDS011;6881;49.962;7.718;2023-03-14T03:40:53;8.33;;;2.00;;
3781;SDS011;6881;49.962;7.718;2023-03-14T03:43:18;4.13;;;1.97;;
3781;SDS011;6881;49.962;7.718;2023-03-14T03:45:43;3.50;;;2.10;;
3781;SDS011;6881;49.962;7.718;2023-03-14T03:48:09;5.53;;;2.13;;
3781;SDS011;6881;49.962;7.718;2023-03-14T03:50:34;6.37;;;2.20;;
3781;SDS011;6881;49.962;7.718;2023-03-14T03:52:59;1.83;;;1.60;;
3781;SDS011;6881;49.962;7.718;2023-03-14T03:55:25;7.13;;;2.10;;
3781;SDS011;6881;49.962;7.718;2023-03-14T03:57:52;6.20;;;1.77;;
3781;SDS011;6881;49.962;7.718;2023-03-14T04:00:18;6.03;;;2.17;;
3781;SDS011;6881;49.962;7.718;2023-03-14T04:02:43;3.60;;;1.37;;
3781;SDS011;6881;49.962;7.718;2023-03-14T04:05:09;5.70;;;1.80;;
3781;SDS011;6881;49.962;7.718;2023-03-14T04:07:34;4.23;;;1.97;;
3781;SDS011;6881;49.962;7.718;2023-03-14T04:10:00;4.30;;;2.23;;
3781;SDS011;6881;49.962;7.718;2023-03-14T04:12:25;5.77;;;2.30;;
3781;SDS011;6881;49.962;7.718;2023-03-14T04:14:50;2.70;;;1.30;;
3781;SDS011;6881;49.962;7.718;2023-03-14T04:17:16;3.40;;;1.20;;
3781;SDS011;6881;49.962;7.718;2023-03-14T04:19:41;4.30;;;1.37;;
3781;SDS011;6881;49.962;7.718;2023-03-14T04:22:07;4.90;;;1.83;;
3781;SDS011;6881;49.962;7.718;2023-03-14T04:24:33;3.00;;;0.90;;
3781;SDS011;6881;49.962;7.718;2023-03-14T04:26:58;2.60;;;1.67;;
3781;SDS011;6881;49.962;7.718;2023-03-14T04:29:23;2.77;;;1.53;;
3781;SDS011;6881;49.962;7.718;2023-03-14T04:31:49;2.90;;;1.10;;
3781;SDS011;6881;49.962;7.718;2023-03-14T04:34:14;4.23;;;1.40;;
3781;SDS011;6881;49.962;7.718;2023-03-14T04:36:39;3.30;;;2.07;;
3781;SDS011;6881;49.962;7.718;2023-03-14T04:39:05;3.53;;;1.87;;
3781;SDS011;6881;49.962;7.718;2023-03-14T04:41:30;2.00;;;1.43;;
3781;SDS011;6881;49.962;7.718;2023-03-14T04:43:56;1.90;;;1.07;;
3781;SDS011;6881;49.962;7.718;2023-03-14T04:46:21;2.60;;;1.50;;
3781;SDS011;6881;49.962;7.718;2023-03-14T04:48:46;2.10;;;1.50;;
3781;SDS011;6881;49.962;7.718;2023-03-14T04:51:12;3.60;;;1.60;;
3781;SDS011;6881;49.962;7.718;2023-03-14T04:53:37;1.97;;;1.40;;
3781;SDS011;6881;49.962;7.718;2023-03-14T04:56:02;4.67;;;1.83;;
3781;SDS011;6881;49.962;7.718;2023-03-14T04:58:28;3.30;;;1.70;;
3781;SDS011;6881;49.962;7.718;2023-03-14T05:00:53;1.10;;;1.00;;
3781;SDS011;6881;49.962;7.718;2023-03-14T05:03:19;3.43;;;1.73;;
3781;SDS011;6881;49.962;7.718;2023-03-14T05:05:44;3.60;;;1.40;;
3781;SDS011;6881;49.962;7.718;2023-03-14T05:08:10;1.83;;;1.33;;
3781;SDS011;6881;49.962;7.718;2023-03-14T05:10:35;1.93;;;1.57;;
3781;SDS011;6881;49.962;7.718;2023-03-14T05:13:01;1.10;;;1.00;;
3781;SDS011;6881;49.962;7.718;2023-03-14T05:15:26;1.63;;;1.10;;
3781;SDS011;6881;49.962;7.718;2023-03-14T05:17:52;3.57;;;1.00;;
3781;SDS011;6881;49.962;7.718;2023-03-14T05:20:18;2.00;;;0.90;;
3781;SDS011;6881;49.962;7.718;2023-03-14T05:22:44;0.80;;;0.70;;
3781;SDS011;6881;49.962;7.718;2023-03-14T05:25:09;2.50;;;2.30;;
3781;SDS011;6881;49.962;7.718;2023-03-14T05:27:35;1.83;;;1.03;;
3781;SDS011;6881;49.962;7.718;2023-03-14T05:30:01;2.60;;;1.43;;
3781;SDS011;6881;49.962;7.718;2023-03-14T05:32:28;2.57;;;1.50;;
3781;SDS011;6881;49.962;7.718;2023-03-14T05:34:53;1.90;;;0.90;;
3781;SDS011;6881;49.962;7.718;2023-03-14T05:37:23;2.60;;;1.60;;
3781;SDS011;6881;49.962;7.718;2023-03-14T05:39:48;1.40;;;0.93;;
3781;SDS011;6881;49.962;7.718;2023-03-14T05:42:13;2.30;;;1.27;;
3781;SDS011;6881;49.962;7.718;2023-03-14T05:44:39;3.43;;;1.50;;
3781;SDS011;6881;49.962;7.718;2023-03-14T05:47:04;2.23;;;1.17;;
3781;SDS011;6881;49.962;7.718;2023-03-14T05:49:29;0.83;;;0.83;;
3781;SDS011;6881;49.962;7.718;2023-03-14T05:51:55;1.70;;;1.30;;
3781;SDS011;6881;49.962;7.718;2023-03-14T05:54:20;1.53;;;1.43;;
3781;SDS011;6881;49.962;7.718;2023-03-14T05:56:46;1.73;;;1.50;;
3781;SDS011;6881;49.962;7.718;2023-03-14T05:59:11;2.07;;;1.57;;
3781;SDS011;6881;49.962;7.718;2023-03-14T06:01:38;4.20;;;2.90;;
3781;SDS011;6881;49.962;7.718;2023-03-14T06:04:04;2.00;;;1.80;;
3781;SDS011;6881;49.962;7.718;2023-03-14T06:06:29;3.30;;;2.30;;
3781;SDS011;6881;49.962;7.718;2023-03-14T06:08:54;2.40;;;2.20;;
3781;SDS011;6881;49.962;7.718;2023-03-14T06:11:20;2.47;;;2.10;;
3781;SDS011;6881;49.962;7.718;2023-03-14T06:13:45;5.57;;;1.60;;
3781;SDS011;6881;49.962;7.718;2023-03-14T06:16:11;2.37;;;2.00;;
3781;SDS011;6881;49.962;7.718;2023-03-14T06:18:37;2.03;;;1.10;;
3781;SDS011;6881;49.962;7.718;2023-03-14T06:21:02;3.53;;;1.40;;
3781;SDS011;6881;49.962;7.718;2023-03-14T06:23:28;2.00;;;1.30;;
3781;SDS011;6881;49.962;7.718;2023-03-14T06:25:55;1.60;;;1.50;;
3781;SDS011;6881;49.962;7.718;2023-03-14T06:28:20;2.20;;;1.40;;
3781;SDS011;6881;49.962;7.718;2023-03-14T06:30:46;1.23;;;1.13;;
3781;SDS011;6881;49.962;7.718;2023-03-14T06:33:11;3.63;;;1.20;;
3781;SDS011;6881;49.962;7.718;2023-03-14T06:35:36;3.43;;;1.70;;
3781;SDS011;6881;49.962;7.718;2023-03-14T06:38:02;3.03;;;2.00;;
3781;SDS011;6881;49.962;7.718;2023-03-14T06:40:27;4.40;;;1.90;;
3781;SDS011;6881;49.962;7.718;2023-03-14T06:42:53;2.37;;;1.70;;
3781;SDS011;6881;49.962;7.718;2023-03-14T06:45:18;2.10;;;1.60;;
3781;SDS011;6881;49.962;7.718;2023-03-14T06:47:43;2.37;;;2.00;;
3781;SDS011;6881;49.962;7.718;2023-03-14T06:50:09;3.80;;;2.50;;
3781;SDS011;6881;49.962;7.718;2023-03-14T06:52:35;1.83;;;1.40;;
3781;SDS011;6881;49.962;7.718;2023-03-14T06:55:01;4.93;;;2.60;;
3781;SDS011;6881;49.962;7.718;2023-03-14T06:57:27;2.57;;;1.93;;
3781;SDS011;6881;49.962;7.718;2023-03-14T06:59:52;2.97;;;1.70;;
3781;SDS011;6881;49.962;7.718;2023-03-14T07:02:17;6.23;;;1.73;;
3781;SDS011;6881;49.962;7.718;2023-03-14T07:04:43;3.33;;;1.83;;
3781;SDS011;6881;49.962;7.718;2023-03-14T07:07:08;2.67;;;1.50;;
3781;SDS011;6881;49.962;7.718;2023-03-14T07:09:34;1.90;;;1.27;;
3781;SDS011;6881;49.962;7.718;2023-03-14T07:11:59;1.20;;;1.10;;
3781;SDS011;6881;49.962;7.718;2023-03-14T07:14:25;1.43;;;1.30;;
3781;SDS011;6881;49.962;7.718;2023-03-14T07:16:50;1.60;;;1.50;;
3781;SDS011;6881;49.962;7.718;2023-03-14T07:19:16;2.03;;;1.73;;
3781;SDS011;6881;49.962;7.718;2023-03-14T07:21:41;3.10;;;1.10;;
3781;SDS011;6881;49.962;7.718;2023-03-14T07:24:06;1.83;;;1.67;;
3781;SDS011;6881;49.962;7.718;2023-03-14T07:26:32;2.17;;;1.20;;
3781;SDS011;6881;49.962;7.718;2023-03-14T07:28:57;2.63;;;1.60;;
3781;SDS011;6881;49.962;7.718;2023-03-14T07:31:23;2.57;;;1.10;;
3781;SDS011;6881;49.962;7.718;2023-03-14T07:33:48;1.70;;;1.40;;
3781;SDS011;6881;49.962;7.718;2023-03-14T07:36:14;1.20;;;1.10;;
3781;SDS011;6881;49.962;7.718;2023-03-14T07:38:39;3.20;;;2.47;;
3781;SDS011;6881;49.962;7.718;2023-03-14T07:41:05;4.37;;;3.77;;
3781;SDS011;6881;49.962;7.718;2023-03-14T07:43:31;2.10;;;1.90;;
3781;SDS011;6881;49.962;7.718;2023-03-14T07:45:57;4.30;;;2.93;;
3781;SDS011;6881;49.962;7.718;2023-03-14T07:48:22;2.00;;;1.10;;
3781;SDS011;6881;49.962;7.718;2023-03-14T07:50:50;5.30;;;1.90;;
3781;SDS011;6881;49.962;7.718;2023-03-14T07:53:15;1.87;;;1.70;;
3781;SDS011;6881;49.962;7.718;2023-03-14T07:55:41;3.30;;;1.43;;
3781;SDS011;6881;49.962;7.718;2023-03-14T07:58:06;2.97;;;1.50;;
3781;SDS011;6881;49.962;7.718;2023-03-14T08:00:32;2.40;;;1.43;;
3781;SDS011;6881;49.962;7.718;2023-03-14T08:02:57;1.83;;;1.53;;
3781;SDS011;6881;49.962;7.718;2023-03-14T08:05:23;2.60;;;1.23;;
3781;SDS011;6881;49.962;7.718;2023-03-14T08:07:48;1.00;;;0.90;;
3781;SDS011;6881;49.962;7.718;2023-03-14T08:10:13;1.47;;;1.10;;
3781;SDS011;6881;49.962;7.718;2023-03-14T08:12:45;1.10;;;1.00;;
3781;SDS011;6881;49.962;7.718;2023-03-14T08:15:11;2.47;;;1.57;;
3781;SDS011;6881;49.962;7.718;2023-03-14T08:17:36;1.73;;;1.00;;
3781;SDS011;6881;49.962;7.718;2023-03-14T08:20:02;1.90;;;1.30;;
3781;SDS011;6881;49.962;7.718;2023-03-14T08:22:31;1.47;;;1.00;;
3781;SDS011;6881;49.962;7.718;2023-03-14T08:24:56;1.77;;;1.27;;
3781;SDS011;6881;49.962;7.718;2023-03-14T08:27:22;2.10;;;1.00;;
3781;SDS011;6881;49.962;7.718;2023-03-14T08:29:47;2.20;;;1.30;;
3781;SDS011;6881;49.962;7.718;2023-03-14T08:32:13;7.83;;;4.17;;
3781;SDS011;6881;49.962;7.718;2023-03-14T08:34:38;15.00;;;7.27;;
3781;SDS011;6881;49.962;7.718;2023-03-14T08:37:04;9.90;;;5.00;;
3781;SDS011;6881;49.962;7.718;2023-03-14T08:39:30;4.70;;;2.00;;
3781;SDS011;6881;49.962;7.718;2023-03-14T08:41:55;3.27;;;1.23;;
3781;SDS011;6881;49.962;7.718;2023-03-14T08:44:20;1.70;;;0.97;;
3781;SDS011;6881;49.962;7.718;2023-03-14T08:46:46;1.00;;;0.90;;
3781;SDS011;6881;49.962;7.718;2023-03-14T08:49:11;0.73;;;0.70;;
3781;SDS011;6881;49.962;7.718;2023-03-14T08:51:37;1.60;;;0.70;;
3781;SDS011;6881;49.962;7.718;2023-03-14T08:54:02;2.50;;;0.50;;
3781;SDS011;6881;49.962;7.718;2023-03-14T08:56:27;1.43;;;0.60;;
3781;SDS011;6881;49.962;7.718;2023-03-14T08:58:53;0.63;;;0.63;;
3781;SDS011;6881;49.962;7.718;2023-03-14T09:01:18;1.43;;;0.43;;
3781;SDS011;6881;49.962;7.718;2023-03-14T09:03:44;0.93;;;0.60;;
3781;SDS011;6881;49.962;7.718;2023-03-14T09:06:12;0.67;;;0.60;;
3781;SDS011;6881;49.962;7.718;2023-03-14T09:08:37;1.30;;;0.93;;
3781;SDS011;6881;49.962;7.718;2023-03-14T09:11:03;2.20;;;0.80;;
3781;SDS011;6881;49.962;7.718;2023-03-14T09:13:32;0.60;;;0.43;;
3781;SDS011;6881;49.962;7.718;2023-03-14T09:15:57;1.67;;;0.70;;
3781;SDS011;6881;49.962;7.718;2023-03-14T09:18:22;0.57;;;0.40;;
3781;SDS011;6881;49.962;7.718;2023-03-14T09:20:48;0.70;;;0.50;;
3781;SDS011;6881;49.962;7.718;2023-03-14T09:23:14;0.97;;;0.53;;
3781;SDS011;6881;49.962;7.718;2023-03-14T09:25:39;0.70;;;0.47;;
3781;SDS011;6881;49.962;7.718;2023-03-14T09:28:05;1.47;;;0.27;;
3781;SDS011;6881;49.962;7.718;2023-03-14T09:30:30;1.13;;;0.30;;
3781;SDS011;6881;49.962;7.718;2023-03-14T09:32:55;0.50;;;0.50;;
3781;SDS011;6881;49.962;7.718;2023-03-14T09:35:22;0.60;;;0.40;;
3781;SDS011;6881;49.962;7.718;2023-03-14T09:37:47;0.40;;;0.37;;
3781;SDS011;6881;49.962;7.718;2023-03-14T09:40:14;0.50;;;0.30;;
3781;SDS011;6881;49.962;7.718;2023-03-14T09:42:40;1.43;;;0.80;;
3781;SDS011;6881;49.962;7.718;2023-03-14T09:45:10;0.80;;;0.60;;
3781;SDS011;6881;49.962;7.718;2023-03-14T09:47:38;1.03;;;0.80;;
3781;SDS011;6881;49.962;7.718;2023-03-14T09:50:05;0.60;;;0.40;;
3781;SDS011;6881;49.962;7.718;2023-03-14T09:52:38;0.40;;;0.30;;
3781;SDS011;6881;49.962;7.718;2023-03-14T09:55:05;0.40;;;0.40;;
3781;SDS011;6881;49.962;7.718;2023-03-14T09:57:33;1.40;;;1.00;;
3781;SDS011;6881;49.962;7.718;2023-03-14T10:00:19;4.20;;;3.17;;
3781;SDS011;6881;49.962;7.718;2023-03-14T10:02:51;3.20;;;0.80;;
3781;SDS011;6881;49.962;7.718;2023-03-14T10:05:19;0.90;;;0.60;;
3781;SDS011;6881;49.962;7.718;2023-03-14T10:07:47;0.40;;;0.37;;
3781;SDS011;6881;49.962;7.718;2023-03-14T10:10:17;1.70;;;0.90;;
3781;SDS011;6881;49.962;7.718;2023-03-14T10:12:45;0.70;;;0.70;;
3781;SDS011;6881;49.962;7.718;2023-03-14T10:15:12;1.50;;;0.80;;
3781;SDS011;6881;49.962;7.718;2023-03-14T10:17:44;3.00;;;2.13;;
3781;SDS011;6881;49.962;7.718;2023-03-14T10:22:52;1.77;;;1.47;;
3781;SDS011;6881;49.962;7.718;2023-03-14T10:25:28;4.70;;;2.63;;
3781;SDS011;6881;49.962;7.718;2023-03-14T10:27:55;3.50;;;2.00;;
3781;SDS011;6881;49.962;7.718;2023-03-14T10:33:19;2.13;;;1.93;;
3781;SDS011;6881;49.962;7.718;2023-03-14T10:35:56;2.53;;;1.87;;
3781;SDS011;6881;49.962;7.718;2023-03-14T10:38:35;4.30;;;2.43;;
3781;SDS011;6881;49.962;7.718;2023-03-14T10:41:01;1.93;;;1.10;;
3781;SDS011;6881;49.962;7.718;2023-03-14T10:46:01;1.23;;;1.10;;
3781;SDS011;6881;49.962;7.718;2023-03-14T10:48:32;0.90;;;0.70;;
3781;SDS011;6881;49.962;7.718;2023-03-14T10:54:00;1.50;;;1.00;;
3781;SDS011;6881;49.962;7.718;2023-03-14T10:56:40;2.97;;;0.70;;
3781;SDS011;6881;49.962;7.718;2023-03-14T10:59:14;1.10;;;0.83;;
3781;SDS011;6881;49.962;7.718;2023-03-14T11:07:16;0.60;;;0.50;;
3781;SDS011;6881;49.962;7.718;2023-03-14T11:09:53;1.00;;;0.70;;
3781;SDS011;6881;49.962;7.718;2023-03-14T11:12:29;4.93;;;0.60;;
3781;SDS011;6881;49.962;7.718;2023-03-14T11:15:03;1.50;;;0.67;;
3781;SDS011;6881;49.962;7.718;2023-03-14T11:17:52;0.67;;;0.40;;
3781;SDS011;6881;49.962;7.718;2023-03-14T11:28:39;2.00;;;0.50;;
3781;SDS011;6881;49.962;7.718;2023-03-14T11:36:24;2.17;;;0.63;;
3781;SDS011;6881;49.962;7.718;2023-03-14T11:38:58;0.80;;;0.50;;
3781;SDS011;6881;49.962;7.718;2023-03-14T11:41:30;0.80;;;0.60;;
3781;SDS011;6881;49.962;7.718;2023-03-14T11:44:04;1.30;;;0.80;;
3781;SDS011;6881;49.962;7.718;2023-03-14T11:46:41;1.00;;;0.50;;
3781;SDS011;6881;49.962;7.718;2023-03-14T11:49:19;3.37;;;1.37;;
3781;SDS011;6881;49.962;7.718;2023-03-14T11:51:56;0.97;;;0.63;;
3781;SDS011;6881;49.962;7.718;2023-03-14T11:54:28;1.73;;;1.63;;
3781;SDS011;6881;49.962;7.718;2023-03-14T11:57:11;1.67;;;1.10;;
3781;SDS011;6881;49.962;7.718;2023-03-14T12:02:17;1.33;;;1.10;;
3781;SDS011;6881;49.962;7.718;2023-03-14T12:07:37;0.93;;;0.80;;
3781;SDS011;6881;49.962;7.718;2023-03-14T12:10:07;1.70;;;0.60;;
3781;SDS011;6881;49.962;7.718;2023-03-14T12:12:32;1.50;;;0.93;;
3781;SDS011;6881;49.962;7.718;2023-03-14T12:14:58;1.40;;;1.03;;
3781;SDS011;6881;49.962;7.718;2023-03-14T12:17:38;1.10;;;0.80;;
3781;SDS011;6881;49.962;7.718;2023-03-14T12:20:06;0.80;;;0.80;;
3781;SDS011;6881;49.962;7.718;2023-03-14T12:22:42;1.47;;;1.07;;
3781;SDS011;6881;49.962;7.718;2023-03-14T12:30:25;0.77;;;0.57;;
3781;SDS011;6881;49.962;7.718;2023-03-14T12:35:45;1.60;;;0.90;;
3781;SDS011;6881;49.962;7.718;2023-03-14T12:41:03;3.20;;;1.50;;
3781;SDS011;6881;49.962;7.718;2023-03-14T12:43:37;1.30;;;1.07;;
3781;SDS011;6881;49.962;7.718;2023-03-14T12:48:46;2.53;;;1.43;;
3781;SDS011;6881;49.962;7.718;2023-03-14T12:53:51;2.97;;;2.00;;
3781;SDS011;6881;49.962;7.718;2023-03-14T13:04:45;3.00;;;1.90;;
3781;SDS011;6881;49.962;7.718;2023-03-14T13:07:28;3.10;;;1.83;;
3781;SDS011;6881;49.962;7.718;2023-03-14T13:10:15;2.07;;;1.37;;
3781;SDS011;6881;49.962;7.718;2023-03-14T13:15:46;3.07;;;2.17;;
3781;SDS011;6881;49.962;7.718;2023-03-14T13:20:46;5.73;;;2.30;;
3781;SDS011;6881;49.962;7.718;2023-03-14T13:23:25;3.63;;;2.20;;
3781;SDS011;6881;49.962;7.718;2023-03-14T13:25:51;1.17;;;1.00;;
3781;SDS011;6881;49.962;7.718;2023-03-14T13:28:17;3.23;;;1.50;;
3781;SDS011;6881;49.962;7.718;2023-03-14T13:30:44;2.03;;;1.83;;
3781;SDS011;6881;49.962;7.718;2023-03-14T13:33:12;2.73;;;1.50;;
3781;SDS011;6881;49.962;7.718;2023-03-14T13:35:43;2.83;;;1.97;;
3781;SDS011;6881;49.962;7.718;2023-03-14T13:38:15;1.27;;;1.10;;
3781;SDS011;6881;49.962;7.718;2023-03-14T13:40:43;1.80;;;1.50;;
3781;SDS011;6881;49.962;7.718;2023-03-14T13:43:16;2.73;;;1.30;;
3781;SDS011;6881;49.962;7.718;2023-03-14T13:45:44;1.13;;;1.03;;
3781;SDS011;6881;49.962;7.718;2023-03-14T13:48:14;1.47;;;1.23;;
3781;SDS011;6881;49.962;7.718;2023-03-14T13:50:44;1.70;;;1.60;;
3781;SDS011;6881;49.962;7.718;2023-03-14T13:53:21;1.50;;;1.40;;
3781;SDS011;6881;49.962;7.718;2023-03-14T13:55:46;3.00;;;1.40;;
3781;SDS011;6881;49.962;7.718;2023-03-14T13:58:22;3.53;;;1.43;;
3781;SDS011;6881;49.962;7.718;2023-03-14T14:01:05;3.07;;;1.37;;
3781;SDS011;6881;49.962;7.718;2023-03-14T14:03:37;1.70;;;1.60;;
3781;SDS011;6881;49.962;7.718;2023-03-14T14:06:05;2.43;;;1.43;;
3781;SDS011;6881;49.962;7.718;2023-03-14T14:08:35;2.03;;;1.60;;
3781;SDS011;6881;49.962;7.718;2023-03-14T14:11:01;2.27;;;1.53;;
3781;SDS011;6881;49.962;7.718;2023-03-14T14:13:27;1.40;;;1.30;;
3781;SDS011;6881;49.962;7.718;2023-03-14T14:15:54;2.37;;;1.90;;
3781;SDS011;6881;49.962;7.718;2023-03-14T14:18:20;1.93;;;1.40;;
3781;SDS011;6881;49.962;7.718;2023-03-14T14:20:48;1.57;;;1.47;;
3781;SDS011;6881;49.962;7.718;2023-03-14T14:23:33;4.00;;;1.87;;
3781;SDS011;6881;49.962;7.718;2023-03-14T14:25:59;5.20;;;2.00;;
3781;SDS011;6881;49.962;7.718;2023-03-14T14:33:37;3.83;;;2.57;;
3781;SDS011;6881;49.962;7.718;2023-03-14T14:36:04;3.07;;;1.80;;
3781;SDS011;6881;49.962;7.718;2023-03-14T14:38:30;2.90;;;1.97;;
3781;SDS011;6881;49.962;7.718;2023-03-14T14:40:59;1.40;;;1.30;;
3781;SDS011;6881;49.962;7.718;2023-03-14T14:43:27;3.50;;;1.43;;
3781;SDS011;6881;49.962;7.718;2023-03-14T14:45:54;1.77;;;1.33;;
3781;SDS011;6881;49.962;7.718;2023-03-14T14:48:25;1.17;;;1.07;;
3781;SDS011;6881;49.962;7.718;2023-03-14T14:53:24;1.50;;;1.20;;
3781;SDS011;6881;49.962;7.718;2023-03-14T14:56:03;2.00;;;1.23;;
3781;SDS011;6881;49.962;7.718;2023-03-14T14:58:35;1.60;;;1.00;;
3781;SDS011;6881;49.962;7.718;2023-03-14T15:03:37;3.07;;;1.33;;
3781;SDS011;6881;49.962;7.718;2023-03-14T15:06:03;2.37;;;0.70;;
3781;SDS011;6881;49.962;7.718;2023-03-14T15:08:28;1.70;;;1.20;;
3781;SDS011;6881;49.962;7.718;2023-03-14T15:10:55;1.80;;;1.07;;
3781;SDS011;6881;49.962;7.718;2023-03-14T15:13:21;1.00;;;0.80;;
3781;SDS011;6881;49.962;7.718;2023-03-14T15:15:47;1.00;;;0.90;;
3781;SDS011;6881;49.962;7.718;2023-03-14T15:18:14;2.47;;;1.03;;
3781;SDS011;6881;49.962;7.718;2023-03-14T15:20:42;1.47;;;1.07;;
3781;SDS011;6881;49.962;7.718;2023-03-14T15:23:12;3.07;;;1.03;;
3781;SDS011;6881;49.962;7.718;2023-03-14T15:25:38;2.40;;;0.90;;
3781;SDS011;6881;49.962;7.718;2023-03-14T15:28:26;2.40;;;1.00;;
3781;SDS011;6881;49.962;7.718;2023-03-14T15:30:55;1.73;;;0.60;;
3781;SDS011;6881;49.962;7.718;2023-03-14T15:33:21;2.10;;;1.13;;
3781;SDS011;6881;49.962;7.718;2023-03-14T15:35:47;1.20;;;0.83;;
3781;SDS011;6881;49.962;7.718;2023-03-14T15:38:14;1.57;;;1.00;;
3781;SDS011;6881;49.962;7.718;2023-03-14T15:40:40;1.10;;;0.90;;
3781;SDS011;6881;49.962;7.718;2023-03-14T15:43:06;1.00;;;0.80;;
3781;SDS011;6881;49.962;7.718;2023-03-14T15:45:32;1.53;;;1.00;;
3781;SDS011;6881;49.962;7.718;2023-03-14T15:47:57;1.67;;;0.90;;
3781;SDS011;6881;49.962;7.718;2023-03-14T15:50:23;1.40;;;1.00;;
3781;SDS011;6881;49.962;7.718;2023-03-14T15:52:50;2.67;;;1.00;;
3781;SDS011;6881;49.962;7.718;2023-03-14T15:55:16;1.50;;;1.40;;
3781;SDS011;6881;49.962;7.718;2023-03-14T15:57:42;3.03;;;1.20;;
3781;SDS011;6881;49.962;7.718;2023-03-14T16:00:12;1.50;;;1.27;;
3781;SDS011;6881;49.962;7.718;2023-03-14T16:02:39;4.37;;;2.33;;
3781;SDS011;6881;49.962;7.718;2023-03-14T16:05:06;4.93;;;2.47;;
3781;SDS011;6881;49.962;7.718;2023-03-14T16:07:33;5.00;;;1.90;;
3781;SDS011;6881;49.962;7.718;2023-03-14T16:09:58;3.60;;;1.10;;
3781;SDS011;6881;49.962;7.718;2023-03-14T16:12:24;1.43;;;1.30;;
3781;SDS011;6881;49.962;7.718;2023-03-14T16:14:49;2.57;;;1.93;;
3781;SDS011;6881;49.962;7.718;2023-03-14T16:17:14;3.67;;;2.40;;
3781;SDS011;6881;49.962;7.718;2023-03-14T16:19:40;4.33;;;2.47;;
3781;SDS011;6881;49.962;7.718;2023-03-14T16:22:05;3.27;;;1.70;;
3781;SDS011;6881;49.962;7.718;2023-03-14T16:24:30;5.40;;;2.30;;
3781;SDS011;6881;49.962;7.718;2023-03-14T16:26:56;2.40;;;1.00;;
3781;SDS011;6881;49.962;7.718;2023-03-14T16:29:21;2.10;;;1.53;;
3781;SDS011;6881;49.962;7.718;2023-03-14T16:31:46;1.33;;;1.00;;
3781;SDS011;6881;49.962;7.718;2023-03-14T16:34:12;2.33;;;1.20;;
3781;SDS011;6881;49.962;7.718;2023-03-14T16:36:38;2.23;;;0.90;;
3781;SDS011;6881;49.962;7.718;2023-03-14T16:39:03;1.03;;;0.87;;
3781;SDS011;6881;49.962;7.718;2023-03-14T16:41:29;2.13;;;1.17;;
3781;SDS011;6881;49.962;7.718;2023-03-14T16:43:58;3.10;;;1.17;;
3781;SDS011;6881;49.962;7.718;2023-03-14T16:46:24;1.33;;;0.93;;
3781;SDS011;6881;49.962;7.718;2023-03-14T16:48:52;0.80;;;0.70;;
3781;SDS011;6881;49.962;7.718;2023-03-14T16:51:17;3.90;;;1.60;;
3781;SDS011;6881;49.962;7.718;2023-03-14T16:53:43;1.80;;;1.00;;
3781;SDS011;6881;49.962;7.718;2023-03-14T16:56:09;3.10;;;1.60;;